Time;durP1;ratioP1;P1;durP2;ratioP2;P2;SDS_P1;SDS_P2;PMS_P1;PMS_P2;Temp;Humidity;BMP_temperature;BMP_pressure;BME280_temperature;BME280_humidity;BME280_pressure;Samples;Min_cycle;Max_cycle;Signal;HPM_P1;HPM_P2
2023/02/11 00:01:15;;;;;;;23.52;6.43;;;6.30;99.90;;;;;;5041889;28;20393;-83
2023/02/11 00:03:41;;;;;;;23.38;7.45;;;6.20;99.90;;;;;;5058914;28;20481;-83
2023/02/11 00:06:10;;;;;;;22.13;6.65;;;6.20;99.90;;;;;;5074363;28;20114;-83
2023/02/11 00:08:38;;;;;;;20.42;6.60;;;6.30;99.90;;;;;;5073826;28;20479;-83
2023/02/11 00:11:05;;;;;;;23.30;6.40;;;6.30;99.90;;;;;;5041732;28;20036;-83
2023/02/11 00:13:32;;;;;;;21.70;6.55;;;6.30;99.90;;;;;;5074218;28;20075;-83
2023/02/11 00:15:59;;;;;;;20.95;6.45;;;6.30;99.90;;;;;;5074097;28;20080;-83
2023/02/11 00:18:26;;;;;;;19.38;5.95;;;6.20;99.90;;;;;;5066043;28;20419;-83
2023/02/11 00:20:53;;;;;;;20.00;6.05;;;6.20;99.90;;;;;;5077401;28;20460;-83
2023/02/11 00:23:20;;;;;;;32.92;7.25;;;6.20;99.90;;;;;;5093973;28;20134;-83
2023/02/11 00:25:46;;;;;;;23.75;6.22;;;6.20;99.90;;;;;;5076638;28;20506;-83
2023/02/11 00:28:13;;;;;;;21.88;6.40;;;6.20;99.90;;;;;;5076728;28;20590;-83
2023/02/11 00:30:40;;;;;;;21.20;6.00;;;6.20;99.90;;;;;;5093810;28;20047;-83
2023/02/11 00:33:07;;;;;;;23.55;6.25;;;6.10;99.90;;;;;;5094400;28;20044;-83
2023/02/11 00:35:37;;;;;;;20.08;5.95;;;6.20;99.90;;;;;;5093756;28;20048;-83
2023/02/11 00:38:04;;;;;;;20.90;5.88;;;6.20;99.90;;;;;;5093654;28;20499;-83
2023/02/11 00:40:30;;;;;;;20.13;5.47;;;6.20;99.90;;;;;;5077599;28;20054;-83
2023/02/11 00:42:57;;;;;;;20.00;5.93;;;6.20;99.90;;;;;;5076769;28;20131;-83
2023/02/11 00:45:24;;;;;;;21.80;6.00;;;6.20;99.90;;;;;;5076811;28;20503;-83
2023/02/11 00:47:50;;;;;;;19.27;6.53;;;6.20;99.90;;;;;;5093100;28;20051;-83
2023/02/11 00:50:17;;;;;;;26.38;6.22;;;6.20;99.90;;;;;;5056911;28;20580;-83
2023/02/11 00:52:44;;;;;;;17.98;6.15;;;6.20;99.90;;;;;;5040229;28;20071;-83
2023/02/11 00:55:11;;;;;;;28.05;6.18;;;6.20;99.90;;;;;;5056819;28;20036;-83
2023/02/11 00:57:37;;;;;;;26.48;6.13;;;6.20;99.90;;;;;;5056394;28;20045;-83
2023/02/11 01:00:06;;;;;;;20.92;5.75;;;6.20;99.90;;;;;;5057032;28;20044;-83
2023/02/11 01:02:33;;;;;;;24.95;6.32;;;6.20;99.90;;;;;;5073814;28;20453;-83
2023/02/11 01:04:59;;;;;;;26.10;5.50;;;6.20;99.90;;;;;;5056926;28;20120;-83
2023/02/11 01:07:27;;;;;;;18.52;5.95;;;6.20;99.90;;;;;;5076131;28;20130;-83
2023/02/11 01:09:54;;;;;;;24.90;6.57;;;6.20;99.90;;;;;;5059720;28;20146;-83
2023/02/11 01:12:20;;;;;;;25.90;6.43;;;6.20;99.90;;;;;;5076491;28;20487;-83
2023/02/11 01:14:47;;;;;;;17.38;5.35;;;6.20;99.90;;;;;;5059770;28;20051;-83
2023/02/11 01:17:14;;;;;;;24.85;6.45;;;6.30;99.90;;;;;;5092911;28;20927;-83
2023/02/11 01:19:41;;;;;;;24.67;5.80;;;6.20;99.90;;;;;;5059949;28;20131;-83
2023/02/11 01:22:08;;;;;;;21.92;6.28;;;6.30;99.90;;;;;;5108230;28;20078;-83
2023/02/11 01:24:35;;;;;;;25.23;5.82;;;6.30;99.90;;;;;;5073144;28;20048;-83
2023/02/11 01:27:02;;;;;;;30.02;6.40;;;6.20;99.90;;;;;;5072868;28;20051;-83
2023/02/11 01:29:28;;;;;;;26.63;6.25;;;6.20;99.90;;;;;;5073333;28;20051;-83
2023/02/11 01:31:55;;;;;;;20.33;5.72;;;6.30;99.90;;;;;;5056465;28;20059;-83
2023/02/11 01:34:22;;;;;;;24.10;6.10;;;6.20;99.90;;;;;;5074512;28;20045;-83
2023/02/11 01:36:48;;;;;;;20.77;6.68;;;6.20;99.90;;;;;;5074736;28;20043;-83
2023/02/11 01:39:15;;;;;;;25.60;5.97;;;6.30;99.90;;;;;;5075896;28;20040;-83
2023/02/11 01:41:42;;;;;;;27.02;7.03;;;6.30;99.90;;;;;;5076169;28;20494;-82
2023/02/11 01:44:41;;;;;;;22.23;6.70;;;6.20;99.90;;;;;;5072013;28;20040;-83
2023/02/11 01:47:09;;;;;;;21.05;6.47;;;6.30;99.90;;;;;;5024716;28;20194;-83
2023/02/11 01:49:43;;;;;;;25.00;5.97;;;6.30;99.90;;;;;;5055239;28;20053;-83
2023/02/11 01:52:22;;;;;;;21.60;6.45;;;6.30;99.90;;;;;;5065816;28;20045;-83
2023/02/11 01:57:44;;;;;;;26.13;7.10;;;6.30;99.90;;;;;;5065476;28;20597;-83
2023/02/11 02:00:32;;;;;;;22.27;6.60;;;6.30;99.90;;;;;;5065433;28;20124;-83
2023/02/11 02:03:11;;;;;;;27.10;6.53;;;6.20;99.90;;;;;;5064938;28;20052;-83
2023/02/11 02:05:52;;;;;;;19.95;6.63;;;6.30;99.90;;;;;;5065462;28;20042;-83
2023/02/11 02:08:33;;;;;;;21.90;6.78;;;6.30;99.90;;;;;;5065328;28;20401;-83
2023/02/11 02:11:01;;;;;;;24.38;7.22;;;6.20;99.90;;;;;;5065053;28;20046;-83
2023/02/11 02:13:32;;;;;;;27.10;6.32;;;6.30;99.90;;;;;;5049069;28;20409;-83
2023/02/11 02:16:05;;;;;;;25.08;7.80;;;6.30;99.90;;;;;;5068423;28;20079;-82
2023/02/11 02:18:50;;;;;;;25.02;7.32;;;6.30;99.90;;;;;;5068930;28;20144;-83
2023/02/11 02:21:22;;;;;;;33.28;7.40;;;6.20;99.90;;;;;;5068984;28;20044;-82
2023/02/11 02:24:16;;;;;;;22.10;7.15;;;6.20;99.90;;;;;;5068195;28;20053;-82
2023/02/11 02:27:00;;;;;;;24.25;6.65;;;6.20;99.90;;;;;;5060825;28;20506;-82
2023/02/11 02:29:51;;;;;;;20.90;6.97;;;6.30;99.90;;;;;;5048469;28;20038;-82
2023/02/11 02:32:27;;;;;;;18.50;7.03;;;6.20;99.90;;;;;;5048521;28;20045;-83
2023/02/11 02:35:09;;;;;;;22.35;7.80;;;6.20;99.90;;;;;;5048508;28;20085;-83
2023/02/11 02:37:46;;;;;;;21.35;7.32;;;6.20;99.90;;;;;;5055642;28;20080;-82
2023/02/11 02:40:25;;;;;;;24.30;7.93;;;6.20;99.90;;;;;;5064865;28;20041;-82
2023/02/11 02:42:53;;;;;;;27.88;8.98;;;6.20;99.90;;;;;;5048305;28;20042;-82
2023/02/11 02:45:20;;;;;;;24.35;8.82;;;6.30;99.90;;;;;;5016333;28;20041;-82
2023/02/11 02:47:47;;;;;;;23.58;8.68;;;6.20;99.90;;;;;;5016982;28;20048;-82
2023/02/11 02:50:17;;;;;;;23.00;9.05;;;6.20;99.90;;;;;;5035758;28;20136;-81
2023/02/11 02:53:14;;;;;;;20.30;8.38;;;6.30;99.90;;;;;;5052504;28;20080;-82
2023/02/11 02:56:12;;;;;;;23.52;7.88;;;6.20;99.90;;;;;;5052123;28;20044;-82
2023/02/11 02:58:56;;;;;;;29.40;9.65;;;6.20;99.90;;;;;;5052138;28;20452;-83
2023/02/11 03:01:25;;;;;;;26.83;9.02;;;6.20;99.90;;;;;;5052418;28;20037;-82
2023/02/11 03:04:14;;;;;;;33.97;8.93;;;6.20;99.90;;;;;;5051880;28;20139;-82
2023/02/11 03:06:54;;;;;;;28.98;9.65;;;6.20;99.90;;;;;;5054967;28;20110;-82
2023/02/11 03:09:28;;;;;;;28.35;9.27;;;6.20;99.90;;;;;;5072396;28;20044;-82
2023/02/11 03:11:55;;;;;;;29.38;9.38;;;6.20;99.90;;;;;;5071613;28;20064;-82
2023/02/11 03:14:25;;;;;;;23.75;8.18;;;6.20;99.90;;;;;;5055472;28;20041;-82
2023/02/11 03:16:55;;;;;;;26.45;9.05;;;6.20;99.90;;;;;;5070552;28;20379;-82
2023/02/11 03:19:27;;;;;;;22.55;8.82;;;6.20;99.90;;;;;;5051839;28;20037;-82
2023/02/11 03:21:56;;;;;;;21.65;8.88;;;6.20;99.90;;;;;;5051898;28;20051;-82
2023/02/11 03:24:33;;;;;;;22.13;8.60;;;6.40;99.90;;;;;;5035665;28;20038;-82
2023/02/11 03:27:18;;;;;;;26.48;8.90;;;6.20;99.90;;;;;;5068252;28;20514;-81
2023/02/11 03:29:50;;;;;;;25.75;9.00;;;6.20;99.90;;;;;;5051735;28;20130;-82
2023/02/11 03:32:23;;;;;;;33.45;10.15;;;6.20;99.90;;;;;;5053738;28;20088;-82
2023/02/11 03:35:25;;;;;;;26.05;9.48;;;6.20;99.90;;;;;;5071587;28;20052;-82
2023/02/11 03:38:00;;;;;;;26.58;9.30;;;6.20;99.90;;;;;;5086466;28;20117;-82
2023/02/11 03:40:39;;;;;;;25.35;9.02;;;6.20;99.90;;;;;;5070718;28;20045;-82
2023/02/11 03:43:29;;;;;;;26.42;9.55;;;6.20;99.90;;;;;;5070695;28;20044;-82
2023/02/11 03:45:59;;;;;;;30.38;11.05;;;6.30;99.90;;;;;;5070707;28;20045;-82
2023/02/11 03:48:33;;;;;;;31.52;11.10;;;6.20;99.90;;;;;;5078375;28;20052;-82
2023/02/11 03:51:04;;;;;;;22.45;9.98;;;6.30;99.90;;;;;;5087555;28;20036;-82
2023/02/11 03:53:31;;;;;;;27.10;10.45;;;6.30;99.90;;;;;;5091504;28;20052;-82
2023/02/11 03:56:03;;;;;;;24.40;10.52;;;6.30;99.90;;;;;;5058472;28;20040;-82
2023/02/11 03:58:30;;;;;;;28.02;11.15;;;6.30;99.90;;;;;;5074432;28;20049;-82
2023/02/11 04:00:57;;;;;;;28.45;11.00;;;6.30;99.90;;;;;;5041323;28;20051;-82
2023/02/11 04:03:24;;;;;;;28.48;10.35;;;6.30;99.90;;;;;;5061682;28;20118;-82
2023/02/11 04:05:50;;;;;;;26.08;10.95;;;6.30;99.90;;;;;;5077842;28;20122;-82
2023/02/11 04:08:17;;;;;;;33.78;11.93;;;6.30;99.90;;;;;;5077443;28;20042;-82
2023/02/11 04:10:44;;;;;;;28.52;11.88;;;6.30;99.90;;;;;;5094719;28;20040;-82
2023/02/11 04:13:10;;;;;;;26.30;11.95;;;6.30;99.90;;;;;;5077586;28;20044;-82
2023/02/11 04:15:37;;;;;;;28.98;11.40;;;6.30;99.90;;;;;;5074021;28;20078;-82
2023/02/11 04:18:04;;;;;;;26.23;11.75;;;6.40;99.90;;;;;;5057752;28;20083;-82
2023/02/11 04:20:30;;;;;;;35.22;12.73;;;6.40;99.90;;;;;;5074240;28;20079;-82
2023/02/11 04:22:57;;;;;;;26.52;11.18;;;6.40;99.90;;;;;;5058046;28;20102;-82
2023/02/11 04:25:25;;;;;;;30.33;12.27;;;6.40;99.90;;;;;;5057299;28;20044;-82
2023/02/11 04:27:51;;;;;;;25.60;12.38;;;6.40;99.90;;;;;;5041504;28;20405;-82
2023/02/11 04:30:18;;;;;;;28.23;12.50;;;6.40;99.90;;;;;;5056866;28;20037;-82
2023/02/11 04:32:47;;;;;;;25.50;12.73;;;6.50;99.90;;;;;;5057048;28;20139;-82
2023/02/11 04:35:14;;;;;;;39.30;13.73;;;6.50;99.90;;;;;;5057070;28;20041;-83
2023/02/11 04:37:41;;;;;;;30.92;13.02;;;6.50;99.90;;;;;;5073673;28;20039;-82
2023/02/11 04:40:08;;;;;;;35.55;12.82;;;6.50;99.90;;;;;;5073647;28;20484;-82
2023/02/11 04:42:35;;;;;;;30.13;13.10;;;6.50;99.90;;;;;;5073868;28;20066;-82
2023/02/11 04:45:02;;;;;;;30.65;13.75;;;6.50;99.90;;;;;;5074401;28;20040;-82
2023/02/11 04:47:28;;;;;;;29.05;13.90;;;6.50;99.90;;;;;;5040606;28;20040;-82
2023/02/11 04:49:55;;;;;;;38.20;13.20;;;6.50;99.90;;;;;;5044751;28;20496;-82
2023/02/11 04:52:22;;;;;;;31.65;13.25;;;6.50;99.90;;;;;;5109883;28;20059;-82
2023/02/11 04:54:48;;;;;;;29.00;13.70;;;6.60;99.90;;;;;;5076855;28;20489;-82
2023/02/11 04:57:15;;;;;;;23.48;12.10;;;6.60;99.90;;;;;;5109891;28;20699;-82
2023/02/11 04:59:42;;;;;;;29.67;13.20;;;6.60;99.90;;;;;;5093142;28;20488;-82
2023/02/11 05:02:09;;;;;;;30.55;13.60;;;6.50;99.90;;;;;;5110360;28;20553;-82
2023/02/11 05:04:35;;;;;;;33.10;13.93;;;6.60;99.90;;;;;;5101241;28;20074;-83
2023/02/11 05:07:02;;;;;;;34.80;13.45;;;6.60;99.90;;;;;;5040739;28;20040;-82
2023/02/11 05:09:29;;;;;;;29.13;12.75;;;6.70;99.90;;;;;;5056597;28;20036;-83
2023/02/11 05:11:55;;;;;;;35.50;13.48;;;6.60;99.90;;;;;;5056804;28;20123;-82
2023/02/11 05:14:22;;;;;;;29.23;13.68;;;6.60;99.90;;;;;;5089771;28;20036;-82
2023/02/11 05:16:49;;;;;;;28.77;13.07;;;6.70;99.90;;;;;;5056753;28;20040;-82
2023/02/11 05:19:15;;;;;;;28.88;13.13;;;6.60;99.90;;;;;;5056402;28;20037;-82
2023/02/11 05:21:42;;;;;;;26.83;12.85;;;6.70;99.90;;;;;;5073109;28;20131;-82
2023/02/11 05:24:09;;;;;;;30.58;12.52;;;6.70;99.90;;;;;;5040213;28;20052;-82
2023/02/11 05:26:35;;;;;;;29.70;13.00;;;6.70;99.90;;;;;;5056298;28;20072;-82
2023/02/11 05:29:02;;;;;;;30.27;12.73;;;6.70;99.90;;;;;;5040478;28;20522;-82
2023/02/11 05:31:29;;;;;;;27.55;12.98;;;6.70;99.90;;;;;;5039965;28;20043;-83
2023/02/11 05:33:55;;;;;;;30.25;12.68;;;6.70;99.90;;;;;;5056391;28;20080;-82
2023/02/11 05:36:22;;;;;;;29.52;13.65;;;6.70;99.90;;;;;;5066260;28;20040;-83
2023/02/11 05:38:49;;;;;;;27.40;12.70;;;6.70;99.90;;;;;;5056643;28;20040;-83
2023/02/11 05:41:16;;;;;;;26.45;12.10;;;6.80;99.90;;;;;;5055699;28;20044;-83
2023/02/11 05:43:43;;;;;;;30.27;12.13;;;6.90;99.90;;;;;;5056139;28;20098;-82
2023/02/11 05:46:09;;;;;;;27.20;12.45;;;6.80;99.90;;;;;;5081167;28;20146;-82
2023/02/11 05:48:36;;;;;;;29.42;12.57;;;6.90;99.90;;;;;;5080322;28;20075;-82
2023/02/11 05:51:03;;;;;;;26.30;12.10;;;6.90;99.90;;;;;;5058224;28;20041;-82
2023/02/11 05:53:30;;;;;;;29.70;12.57;;;6.90;99.90;;;;;;5060459;28;20036;-82
2023/02/11 05:55:56;;;;;;;30.58;12.07;;;7.00;99.90;;;;;;5072837;28;20127;-83
2023/02/11 05:58:23;;;;;;;26.77;11.98;;;6.90;99.90;;;;;;5071931;28;20048;-82
2023/02/11 06:00:50;;;;;;;24.70;12.10;;;7.00;99.90;;;;;;5071766;28;20044;-82
2023/02/11 06:03:17;;;;;;;22.95;11.48;;;6.90;99.90;;;;;;5056290;28;20041;-82
2023/02/11 06:05:44;;;;;;;27.17;11.90;;;6.90;99.90;;;;;;5055901;28;20136;-83
2023/02/11 06:08:11;;;;;;;25.95;11.60;;;6.90;99.90;;;;;;5055791;28;20572;-83
2023/02/11 06:10:41;;;;;;;22.75;11.30;;;6.90;99.90;;;;;;5039256;28;20116;-83
2023/02/11 06:13:07;;;;;;;23.55;11.05;;;6.90;99.90;;;;;;5056192;28;20041;-82
2023/02/11 06:15:34;;;;;;;27.60;11.13;;;6.80;99.90;;;;;;5071164;28;20154;-83
2023/02/11 06:18:01;;;;;;;24.25;11.45;;;6.80;99.90;;;;;;5072209;28;20389;-83
2023/02/11 06:20:28;;;;;;;31.83;10.85;;;6.80;99.90;;;;;;5039184;28;20045;-83
2023/02/11 06:22:55;;;;;;;23.60;11.70;;;6.80;99.90;;;;;;5040587;28;20044;-83
2023/02/11 06:25:22;;;;;;;20.20;10.77;;;6.80;99.90;;;;;;5075993;28;20036;-83
2023/02/11 06:27:48;;;;;;;21.85;9.40;;;6.80;99.90;;;;;;5076428;28;20074;-83
2023/02/11 06:30:15;;;;;;;24.90;10.63;;;6.70;99.90;;;;;;5076782;28;20143;-83
2023/02/11 06:32:42;;;;;;;23.75;9.80;;;6.70;99.90;;;;;;5076054;28;20492;-83
2023/02/11 06:35:09;;;;;;;24.60;10.68;;;6.70;99.90;;;;;;5064295;28;20040;-83
2023/02/11 06:37:35;;;;;;;21.13;10.50;;;6.70;99.90;;;;;;5061128;28;20041;-83
2023/02/11 06:40:02;;;;;;;25.10;10.52;;;6.60;99.90;;;;;;5100387;28;20134;-83
2023/02/11 06:42:29;;;;;;;24.65;10.23;;;6.60;99.90;;;;;;5099388;28;20039;-83
2023/02/11 06:44:56;;;;;;;23.08;10.32;;;6.60;99.90;;;;;;5082436;28;20040;-83
2023/02/11 06:47:22;;;;;;;26.75;10.80;;;6.60;99.90;;;;;;5133383;28;20039;-83
2023/02/11 06:49:49;;;;;;;23.90;9.13;;;6.60;99.90;;;;;;5082387;28;20399;-83
2023/02/11 06:52:16;;;;;;;24.85;8.23;;;6.60;99.90;;;;;;5099042;28;20093;-83
2023/02/11 06:54:42;;;;;;;21.08;7.85;;;6.60;99.90;;;;;;5132258;28;20050;-83
2023/02/11 06:57:09;;;;;;;21.80;7.65;;;6.60;99.90;;;;;;5070503;28;20131;-83
2023/02/11 06:59:36;;;;;;;20.60;8.20;;;6.60;99.90;;;;;;5058906;28;20493;-83
2023/02/11 07:02:02;;;;;;;17.67;7.63;;;6.60;99.90;;;;;;5042706;28;20044;-83
2023/02/11 07:04:29;;;;;;;20.77;8.20;;;6.70;99.90;;;;;;5058405;28;20041;-83
2023/02/11 07:06:56;;;;;;;21.15;8.25;;;6.70;99.90;;;;;;5075347;28;20040;-83
2023/02/11 07:09:23;;;;;;;22.75;8.15;;;6.70;99.90;;;;;;5075051;28;20044;-83
2023/02/11 07:11:49;;;;;;;16.05;8.38;;;6.70;99.90;;;;;;5075234;28;20254;-83
2023/02/11 07:14:16;;;;;;;21.67;8.43;;;6.70;99.90;;;;;;5075323;28;20036;-83
2023/02/11 07:16:43;;;;;;;20.23;8.52;;;6.60;99.90;;;;;;5091712;28;20603;-83
2023/02/11 07:19:09;;;;;;;21.52;9.18;;;6.60;99.90;;;;;;5075185;28;20033;-83
2023/02/11 07:21:36;;;;;;;17.70;8.35;;;6.60;99.90;;;;;;5074565;28;20512;-83
2023/02/11 07:24:07;;;;;;;21.88;8.20;;;6.60;99.90;;;;;;5095241;28;20047;-83
2023/02/11 07:26:35;;;;;;;18.15;7.55;;;6.60;99.90;;;;;;5094878;28;20040;-83
2023/02/11 07:29:01;;;;;;;21.42;7.70;;;6.60;99.90;;;;;;5078924;28;20488;-85
2023/02/11 07:31:29;;;;;;;22.00;7.60;;;6.60;99.90;;;;;;5081516;28;20040;-84
2023/02/11 07:33:58;;;;;;;21.52;8.70;;;6.60;99.90;;;;;;5088979;28;20098;-84
2023/02/11 07:36:26;;;;;;;19.00;7.70;;;6.60;99.90;;;;;;5082569;28;20044;-84
2023/02/11 07:38:53;;;;;;;26.73;8.93;;;6.60;99.90;;;;;;5072018;28;20052;-84
2023/02/11 07:41:22;;;;;;;19.95;8.57;;;6.60;99.90;;;;;;5086523;28;20032;-84
2023/02/11 07:43:50;;;;;;;20.73;8.43;;;6.60;99.90;;;;;;5078763;28;20123;-84
2023/02/11 07:46:22;;;;;;;22.75;9.38;;;6.60;99.90;;;;;;5070030;28;20501;-84
2023/02/11 07:48:50;;;;;;;23.08;9.23;;;6.60;99.90;;;;;;5078986;28;20538;-84
2023/02/11 07:51:20;;;;;;;19.63;8.75;;;6.80;99.90;;;;;;5082875;28;20044;-84
2023/02/11 07:53:47;;;;;;;21.77;9.02;;;6.70;99.90;;;;;;5080769;28;20037;-82
2023/02/11 07:56:16;;;;;;;23.42;8.43;;;6.70;99.90;;;;;;5111878;28;20131;-84
2023/02/11 07:58:43;;;;;;;21.52;8.63;;;6.70;99.90;;;;;;5094538;28;20135;-84
2023/02/11 08:01:23;;;;;;;19.40;9.18;;;6.70;99.90;;;;;;5069735;28;20489;-84
2023/02/11 08:03:51;;;;;;;24.50;8.38;;;6.70;99.90;;;;;;5088768;28;20446;-84
2023/02/11 08:06:20;;;;;;;27.52;9.00;;;6.70;99.90;;;;;;5078659;28;20039;-84
2023/02/11 08:08:47;;;;;;;24.45;8.52;;;6.80;99.90;;;;;;5078201;28;20028;-84
2023/02/11 08:11:16;;;;;;;26.10;9.48;;;6.80;99.90;;;;;;5062839;28;20041;-84
2023/02/11 08:13:44;;;;;;;26.10;8.75;;;6.80;99.90;;;;;;5074192;28;20044;-84
2023/02/11 08:16:21;;;;;;;19.65;8.48;;;6.80;99.90;;;;;;5058322;28;20106;-83
2023/02/11 08:18:49;;;;;;;25.10;9.32;;;6.80;99.90;;;;;;5081947;28;20063;-84
2023/02/11 08:21:16;;;;;;;22.30;10.20;;;6.80;99.90;;;;;;5085454;28;20032;-84
2023/02/11 08:23:43;;;;;;;19.63;8.88;;;6.80;99.90;;;;;;5073718;28;20076;-84
2023/02/11 08:26:14;;;;;;;21.52;8.70;;;6.90;99.90;;;;;;5090770;28;20400;-84
2023/02/11 08:28:42;;;;;;;27.23;8.27;;;6.80;99.90;;;;;;5073665;28;20124;-83
2023/02/11 08:31:22;;;;;;;22.20;9.23;;;6.90;99.90;;;;;;5093609;28;20385;-84
2023/02/11 08:33:49;;;;;;;22.33;9.00;;;6.90;99.90;;;;;;5090933;28;20032;-84
2023/02/11 08:36:18;;;;;;;19.25;8.88;;;6.90;99.90;;;;;;5090688;28;20043;-84
2023/02/11 08:38:45;;;;;;;21.17;9.15;;;7.00;99.90;;;;;;5093428;28;20119;-83
2023/02/11 08:41:16;;;;;;;24.60;9.23;;;6.90;99.90;;;;;;5077271;28;20128;-83
2023/02/11 08:43:44;;;;;;;18.42;8.18;;;7.00;99.90;;;;;;5074697;28;20089;-84
2023/02/11 08:46:14;;;;;;;19.42;7.93;;;7.00;99.90;;;;;;5041948;28;20037;-84
2023/02/11 08:48:41;;;;;;;18.38;6.80;;;7.00;99.90;;;;;;5090183;28;20064;-83
2023/02/11 08:51:11;;;;;;;18.33;7.18;;;7.00;99.90;;;;;;5081057;28;20047;-84
2023/02/11 08:53:38;;;;;;;14.05;7.05;;;7.00;99.90;;;;;;5076826;28;20119;-83
2023/02/11 08:56:05;;;;;;;23.73;9.88;;;7.00;99.90;;;;;;5071402;28;20170;-83
2023/02/11 08:58:32;;;;;;;21.33;8.75;;;7.00;99.90;;;;;;5072152;28;20062;-83
2023/02/11 09:00:59;;;;;;;22.73;8.43;;;7.00;99.90;;;;;;5063816;28;20041;-82
2023/02/11 09:03:25;;;;;;;19.58;8.98;;;7.00;99.90;;;;;;5072375;28;20052;-83
2023/02/11 09:05:52;;;;;;;19.08;8.82;;;7.10;99.90;;;;;;5056422;28;20432;-83
2023/02/11 09:08:20;;;;;;;25.38;8.73;;;7.10;99.90;;;;;;5072571;28;20036;-84
2023/02/11 09:10:46;;;;;;;19.08;9.43;;;7.10;99.90;;;;;;5072708;28;20085;-83
2023/02/11 09:13:13;;;;;;;25.95;10.13;;;7.10;99.90;;;;;;5089266;28;20127;-84
2023/02/11 09:15:45;;;;;;;19.40;8.90;;;7.20;99.90;;;;;;5072979;28;20047;-83
2023/02/11 09:18:12;;;;;;;20.20;9.07;;;7.20;99.90;;;;;;5089527;28;20040;-83
2023/02/11 09:20:40;;;;;;;26.63;9.00;;;7.20;99.90;;;;;;5056800;28;20614;-83
2023/02/11 09:23:06;;;;;;;20.88;9.35;;;7.20;99.90;;;;;;5058975;28;20507;-83
2023/02/11 09:25:33;;;;;;;23.25;8.93;;;7.20;99.90;;;;;;5062152;28;20037;-83
2023/02/11 09:28:00;;;;;;;24.85;10.10;;;7.20;99.90;;;;;;5081433;28;20032;-82
2023/02/11 09:30:26;;;;;;;21.52;9.13;;;7.30;99.90;;;;;;5109340;28;20043;-84
2023/02/11 09:32:53;;;;;;;27.75;9.30;;;7.30;99.90;;;;;;5072612;28;20405;-84
2023/02/11 09:35:20;;;;;;;25.25;9.10;;;7.30;99.90;;;;;;5055748;28;20047;-83
2023/02/11 09:37:46;;;;;;;23.20;9.40;;;7.30;99.90;;;;;;5072325;28;20037;-83
2023/02/11 09:40:14;;;;;;;23.08;8.90;;;7.30;99.90;;;;;;5039816;28;20036;-83
2023/02/11 09:42:44;;;;;;;20.17;8.93;;;7.30;99.90;;;;;;5085626;28;20040;-83
2023/02/11 09:45:24;;;;;;;20.20;8.32;;;7.40;99.90;;;;;;5071436;28;20783;-84
2023/02/11 09:48:04;;;;;;;23.33;8.55;;;7.40;99.90;;;;;;5071717;28;20044;-83
2023/02/11 09:50:35;;;;;;;19.08;8.52;;;7.40;99.90;;;;;;5069327;28;20429;-83
2023/02/11 09:53:03;;;;;;;19.23;9.02;;;7.40;99.90;;;;;;5067720;28;20044;-84
2023/02/11 09:55:40;;;;;;;18.88;8.75;;;7.50;99.90;;;;;;5051141;28;20095;-84
2023/02/11 09:58:18;;;;;;;17.27;7.57;;;7.50;99.90;;;;;;5056081;28;20482;-84
2023/02/11 10:01:05;;;;;;;21.80;8.65;;;7.60;99.90;;;;;;5061114;28;20461;-84
2023/02/11 10:03:41;;;;;;;21.98;8.40;;;7.60;99.90;;;;;;5059579;28;20391;-84
2023/02/11 10:06:44;;;;;;;18.58;7.70;;;7.60;99.90;;;;;;5063818;28;20112;-84
2023/02/11 10:09:25;;;;;;;28.15;10.30;;;7.70;99.90;;;;;;5065433;28;20119;-84
2023/02/11 10:11:55;;;;;;;24.95;7.88;;;7.70;99.90;;;;;;5051553;28;20045;-84
2023/02/11 10:14:21;;;;;;;16.52;7.55;;;7.70;99.90;;;;;;5048198;28;20473;-84
2023/02/11 10:17:03;;;;;;;20.67;8.00;;;7.70;99.90;;;;;;5054203;28;20041;-84
2023/02/11 10:19:48;;;;;;;18.30;8.35;;;7.80;99.90;;;;;;5057782;28;20037;-84
2023/02/11 10:22:21;;;;;;;27.53;7.50;;;7.80;99.90;;;;;;5057173;28;20041;-84
2023/02/11 10:24:52;;;;;;;23.10;7.50;;;7.80;99.90;;;;;;5063069;28;20065;-84
2023/02/11 10:27:32;;;;;;;18.20;8.13;;;7.80;99.90;;;;;;5064287;28;20038;-83
2023/02/11 10:30:18;;;;;;;17.00;7.15;;;7.90;99.90;;;;;;5048153;28;20069;-84
2023/02/11 10:32:47;;;;;;;16.77;7.77;;;8.00;99.90;;;;;;5057217;28;20772;-84
2023/02/11 10:35:25;;;;;;;18.55;7.22;;;8.00;99.90;;;;;;5064424;28;20569;-82
2023/02/11 10:37:56;;;;;;;16.95;8.05;;;8.00;99.90;;;;;;5067541;28;20040;-84
2023/02/11 10:40:27;;;;;;;17.67;8.35;;;8.10;99.90;;;;;;5067784;28;20055;-84
2023/02/11 10:43:01;;;;;;;20.05;8.60;;;8.10;99.90;;;;;;5077519;28;20056;-84
2023/02/11 10:45:31;;;;;;;22.10;9.23;;;8.10;99.90;;;;;;5072275;28;20052;-84
2023/02/11 10:47:58;;;;;;;25.05;10.27;;;8.10;99.90;;;;;;5052443;28;20111;-84
2023/02/11 10:50:28;;;;;;;17.27;8.82;;;8.20;99.90;;;;;;5061066;28;20492;-84
2023/02/11 10:53:19;;;;;;;20.65;8.57;;;8.20;99.90;;;;;;5075968;28;20037;-84
2023/02/11 10:55:53;;;;;;;22.67;8.93;;;8.30;99.90;;;;;;5117493;28;20042;-84
2023/02/11 10:58:59;;;;;;;26.42;12.23;;;8.40;99.90;;;;;;5074810;28;20036;-85
2023/02/11 11:01:57;;;;;;;16.75;7.65;;;8.40;99.90;;;;;;5080811;28;20037;-84
2023/02/11 11:04:33;;;;;;;22.80;8.20;;;8.40;99.90;;;;;;5084483;28;20032;-84
2023/02/11 11:07:11;;;;;;;20.90;9.00;;;8.50;99.90;;;;;;5086226;28;20058;-85
2023/02/11 11:09:54;;;;;;;18.02;7.40;;;8.60;99.90;;;;;;5086351;28;20054;-84
2023/02/11 11:12:47;;;;;;;21.13;7.18;;;8.60;99.90;;;;;;5094982;28;20042;-85
2023/02/11 11:15:20;;;;;;;16.75;6.93;;;8.60;99.90;;;;;;5094548;28;20122;-85
2023/02/11 11:17:48;;;;;;;21.88;7.57;;;8.60;99.90;;;;;;5094509;28;20036;-84
2023/02/11 11:20:18;;;;;;;15.75;6.80;;;8.60;99.90;;;;;;5072452;28;20045;-83
2023/02/11 11:22:46;;;;;;;18.83;7.20;;;8.70;99.90;;;;;;5094755;28;20044;-83
2023/02/11 11:25:21;;;;;;;19.08;7.80;;;8.60;99.90;;;;;;5093470;28;20095;-83
2023/02/11 11:27:50;;;;;;;15.15;7.38;;;8.70;99.90;;;;;;5077646;28;20085;-83
2023/02/11 11:30:17;;;;;;;18.42;6.47;;;8.70;99.90;;;;;;5093540;28;20045;-83
2023/02/11 11:32:44;;;;;;;16.23;5.70;;;8.70;99.90;;;;;;5058760;28;20044;-83
2023/02/11 11:35:32;;;;;;;18.88;6.13;;;8.70;99.90;;;;;;5078462;28;20050;-83
2023/02/11 11:38:01;;;;;;;16.50;6.07;;;8.70;99.90;;;;;;5076974;28;20055;-83
2023/02/11 11:40:31;;;;;;;15.95;5.18;;;8.70;99.90;;;;;;5091754;28;20046;-83
2023/02/11 11:43:24;;;;;;;16.90;5.25;;;8.70;99.90;;;;;;5074220;28;20044;-83
2023/02/11 11:45:56;;;;;;;19.55;5.40;;;8.80;99.90;;;;;;5073973;28;20117;-83
2023/02/11 11:48:28;;;;;;;12.68;5.00;;;8.80;99.90;;;;;;5081233;28;20064;-83
2023/02/11 11:51:05;;;;;;;11.02;4.35;;;8.80;99.90;;;;;;5079187;28;20109;-83
2023/02/11 11:53:40;;;;;;;10.50;3.67;;;8.80;99.90;;;;;;5087451;28;20036;-83
2023/02/11 11:56:07;;;;;;;;;;;8.80;99.90;;;;;;5093869;28;20096;-83
2023/02/11 11:58:34;;;;;;;13.77;4.10;;;8.90;99.90;;;;;;5078819;28;19919;-84
2023/02/11 12:01:03;;;;;;;14.80;3.80;;;8.90;99.90;;;;;;5077617;28;20047;-83
2023/02/11 12:03:49;;;;;;;15.85;3.25;;;8.90;99.90;;;;;;5110276;28;20059;-83
2023/02/11 12:06:33;;;;;;;11.02;2.85;;;9.10;99.90;;;;;;5094033;28;20044;-83
2023/02/11 12:09:18;;;;;;;10.40;3.00;;;9.00;99.90;;;;;;5111017;28;20134;-83
2023/02/11 12:12:22;;;;;;;11.80;3.08;;;9.00;99.90;;;;;;5088853;28;20428;-83
2023/02/11 12:15:15;;;;;;;9.05;3.00;;;9.10;99.90;;;;;;5081669;28;20044;-82
2023/02/11 12:17:56;;;;;;;18.73;3.05;;;9.10;99.90;;;;;;5088134;28;20036;-83
2023/02/11 12:20:32;;;;;;;13.07;3.33;;;9.10;99.90;;;;;;5089147;28;20500;-84
2023/02/11 12:23:01;;;;;;;12.18;2.92;;;9.10;99.90;;;;;;5090055;28;20052;-84
2023/02/11 12:25:40;;;;;;;12.57;3.15;;;9.00;99.90;;;;;;5084212;28;20024;-84
2023/02/11 12:28:07;;;;;;;13.02;3.22;;;9.10;99.90;;;;;;5100444;28;20529;-84
2023/02/11 12:30:49;;;;;;;9.18;2.85;;;9.10;99.90;;;;;;5083476;28;20040;-84
2023/02/11 12:33:37;;;;;;;14.27;3.30;;;9.10;99.90;;;;;;5084118;28;20390;-84
2023/02/11 12:36:28;;;;;;;14.50;2.97;;;9.10;99.90;;;;;;5102713;28;20256;-84
2023/02/11 12:39:33;;;;;;;17.10;3.53;;;9.10;99.90;;;;;;5102480;28;20035;-84
2023/02/11 12:45:21;;;;;;;9.60;2.72;;;9.10;99.90;;;;;;5081415;28;20058;-84
2023/02/11 12:48:07;;;;;;;13.73;2.67;;;9.20;99.90;;;;;;5093218;28;20488;-84
2023/02/11 12:50:54;;;;;;;15.38;2.83;;;9.10;99.90;;;;;;5081769;28;20084;-84
2023/02/11 12:53:45;;;;;;;12.68;2.67;;;9.10;99.90;;;;;;5072943;28;20037;-84
2023/02/11 12:56:33;;;;;;;14.07;2.47;;;9.10;99.90;;;;;;5089704;28;20036;-83
2023/02/11 12:59:03;;;;;;;13.93;2.72;;;9.10;99.90;;;;;;5073537;28;20504;-84
2023/02/11 13:01:35;;;;;;;14.50;2.58;;;9.10;99.90;;;;;;5056669;28;20036;-84
2023/02/11 13:04:08;;;;;;;14.00;2.65;;;9.10;99.90;;;;;;5099413;28;20081;-83
2023/02/11 13:07:09;;;;;;;14.32;2.75;;;9.10;99.90;;;;;;5084725;28;20073;-84
2023/02/11 13:10:07;;;;;;;17.88;3.13;;;9.00;99.90;;;;;;5082531;28;20048;-84
2023/02/11 13:15:22;;;;;;;13.20;2.58;;;9.10;99.90;;;;;;5088676;28;20052;-84
2023/02/11 13:18:12;;;;;;;9.38;2.20;;;9.00;99.90;;;;;;5056035;28;20044;-84